Occasions de marché

Parcourez la liste des occasions de marché et inscrivez-vous aux notifications pour rester informé. Pour télécharger l'information sur les contrats affichée sur AchatsCanada et l'historique des contrats : 


Catégories d'avis

10 of 7900
Liste des avis d'appel d'offres. Les colonnes sont triable par ordre croissant ou décroissant.
Titre Catégorie Date de début ou de modification Date de clôture Organisation
Kinetic Notice of Inetent 2023.2 Services, Construction, Biens 2023/10/30 2024/10/31 Kinetic GPO
Kinetic 22-167 The Connection - Notice of Early Works ITT 2023/12/04 2023/12/19 Greater Vancouver Regional District (…
Kinetic GPO 2022/07/28 2022/08/11 City of Port Coquitlam
Kinetic GPO 2023/06/13 2023/06/27 City of Port Coquitlam
Kinetic GPO 2023/06/13 2023/06/27 City of Port Coquitlam
TRAUMA INFORMED ENVIRONMENTAL ASSESSMENT TRAINING 2022/12/12 2022/12/23 Environmental Assessment Office
Kinetic GPO 2024/04/29 2024/05/16 City of Port Coquitlam
KineticGPO - Notice of participation in a buying group. This posting IS… Biens 2024/04/18 2025/03/31 Department of Service Nova Scotia
Kinetic GPO Cooperative Purchasing 2022/09/07 2024/12/15 District of North Vancouver
Kinetic GPO - Notice of participation in a buying group. This posting IS… Services, Biens 2023/06/02 2024/03/31 Department of Service Nova Scotia and…
Displaying 1 - 10 of
10 of 24340
24340
Liste des avis d'attribution. Les colonnes sont triable par ordre croissant ou décroissant.
Titre Catégorie Date de l’attribution ou de modification Date de clôture Organisation
Modif 009 - Transports (RandD) - RONA Kinetics and Associates Ltd. Services 2024/04/22
Modifié
2024/03/29 Ministère des Transports (TC)
AMA Proservices - Kinetica Dynamics Inc. Services 2024/02/22
Modifié
2100/01/01 Ministère des Travaux publics et des…
Modif 000 - Services de depollution environnementale des sites… Services 2023/05/10
Modifié
2025/02/28 Ministère des Travaux publics et des…
Modif 001 - SERVICES D’ÉVALUATION DES RISQUES SITES CONTAMINÉS -… Services 2024/03/22
Modifié
2023/10/31 Ministère des Travaux publics et des…
Services Environmentale Services 2013/07/10 N / A Ressources naturelles Canada
Modif 001 - SERVICES D’ÉVALUATION DES RISQUES SITES CONTAMINÉS -… Services 2024/03/22
Modifié
2023/10/31 Ministère des Travaux publics et des…
Environmental Site Assessment at Former US Military Sites Services 2023/11/01 2024/03/31 Government of Newfoundland and Labrador (…
Environmental Temporary Help Services Services 2017/02/22 N / A Travaux publics et Services…
Environmental Temporary Help Services Services 2017/02/22 N / A Travaux publics et Services…
Environmental Temporary Help Services Services 2017/02/22 N / A Travaux publics et Services…
50 of 139015
Liste des informations sur l'historique du contrat. Les colonnes sont triable par ordre croissant ou décroissant.
Nom de l’entreprise Numéro du contrat Organisation Date de l’attribution ou de modification Valeur du contrat ou de la modification
Kinetic Construction Ltd. F1700-195560/001/PWY Pêches et Océans Canada 2022/06/22 CAD 26,841.00
Kinetic Construction Ltd. F1700-195560/001/PWY Pêches et Océans Canada 2021/11/30 CAD -513,518.00
Kinetic Construction Ltd. F1700-195560/001/PWY Pêches et Océans Canada 2021/06/30 CAD 103,161.00
Kinetic Construction Ltd. F1700-195560/001/PWY Pêches et Océans Canada 2021/02/15 CAD 136,212.00
Kinetic Construction Ltd. F1700-195560/001/PWY Pêches et Océans Canada 2020/10/27 CAD 96,125.00
Kinetic Construction Ltd. F1700-195560/001/PWY Pêches et Océans Canada 2020/07/09 CAD 8,272,841.00
Kinetic Construction Ltd. EZ899-190130/001/PWY Travaux publics et Services… 2019/12/19 CAD 41,197.00
Kinetic Construction Ltd. EZ899-190130/001/PWY Travaux publics et Services… 2019/08/06 CAD 1,785.00
Kinetic Construction Ltd. EZ899-190130/001/PWY Travaux publics et Services… 2019/05/10 CAD 54,347.00
Kinetic Construction Ltd. EZ899-190130/001/PWY Travaux publics et Services… 2019/05/07 CAD 39,022.00
Kinetic Construction Ltd. EZ899-190130/001/PWY Travaux publics et Services… 2018/10/11 CAD 6,325.00
Kinetic Construction Ltd. EZ108-181211/001/PWY Travaux publics et Services… 2017/12/28 CAD 546,966.00
Kinetic Construction Ltd. EZ108-151550/001/PWY Travaux publics et Services… 2015/03/31 CAD 115,310.00
Kinetic Construction Ltd. EZ108-151550/001/PWY Travaux publics et Services… 2015/01/07 CAD 415,375.00
Kinetic Construction Ltd. EZ899-130572/001/PWY Travaux publics et Services… 2012/09/06 CAD 208,320.00
Kinetic Construction Ltd. EZ851-110844/001/PWY Travaux publics et Services… 2012/01/25 CAD 28,158.00
Kinetic Construction Ltd. EZ851-110844/001/PWY Travaux publics et Services… 2011/07/06 CAD -70,247.00
Kinetic Construction Ltd. EZ851-110844/001/PWY Travaux publics et Services… 2011/01/24 CAD 252,300.00
Kinetic Construction Ltd. EZ851-110844/001/PWY Travaux publics et Services… 2010/10/21 CAD 49,459.00
Kinetic Construction Ltd. E0276-084137/001/PWY Travaux publics et Services… 2009/10/05 CAD 82,538.00
Kinetic Construction Ltd. E0276-084137/001/PWY Travaux publics et Services… 2009/06/05 CAD 22,569.00
Kinetic Construction Ltd. F1700-195560/001/PWY Pêches et Océans Canada 2022/07/15 CAD 191,517.00
Kinetic Construction Ltd. F1700-195560/001/PWY Pêches et Océans Canada 2022/05/05 CAD 13,036.00
Kinetic Construction Ltd. F1700-195560/001/PWY Pêches et Océans Canada 2022/04/01 CAD 10,151.00
Kinetic Construction Ltd. F1700-195560/001/PWY Pêches et Océans Canada 2022/02/10 CAD 39,060.00
Kinetic Construction Ltd. F1700-195560/001/PWY Pêches et Océans Canada 2022/01/27 CAD 194,014.00
Kinetic Construction Ltd. F1700-195560/001/PWY Pêches et Océans Canada 2021/11/30 CAD 547,552.00
Kinetic Construction Ltd. F1700-195560/001/PWY Pêches et Océans Canada 2021/11/18 CAD 377,307.00
Kinetic Construction Ltd. F1700-195560/001/PWY Pêches et Océans Canada 2021/03/18 CAD 689,328.00
Kinetic Construction Ltd. EZ899-190130/001/PWY Travaux publics et Services… 2020/02/11 CAD 17,082.00
Kinetic Construction Ltd. EZ899-190130/001/PWY Travaux publics et Services… 2020/01/22 CAD -31,379.00
Kinetic Construction Ltd. EZ108-181211/001/PWY Travaux publics et Services… 2019/12/10 CAD -228,809.00
Kinetic Construction Ltd. EZ899-190130/001/PWY Travaux publics et Services… 2019/09/23 CAD 6,910.00
Kinetic Construction Ltd. EZ899-190130/001/PWY Travaux publics et Services… 2019/08/16 CAD 23,264.00
Kinetic Construction Ltd. EZ899-190130/001/PWY Travaux publics et Services… 2019/07/04 CAD 11,496.00
Kinetic Construction Ltd. EZ899-190130/001/PWY Travaux publics et Services… 2019/07/02 CAD 140,869.00
Kinetic Construction Ltd. EZ899-190130/001/PWY Travaux publics et Services… 2019/06/03 CAD 10,624.00
Kinetic Construction Ltd. EZ899-192714/001/PWY Travaux publics et Services… 2019/05/28 CAD -9.00
Kinetic Construction Ltd. EZ899-192714/001/PWY Travaux publics et Services… 2019/05/28 CAD 11,276,532.00
Kinetic Construction Ltd. EZ899-190130/001/PWY Travaux publics et Services… 2019/02/19 CAD 1,795.00
Kinetic Construction Ltd. EZ899-190130/001/PWY Travaux publics et Services… 2019/02/07 CAD 6,266,663.00
Kinetic Construction Ltd. EZ899-190130/001/PWY Travaux publics et Services… 2019/01/21 CAD 31,000.00
Kinetic Construction Ltd. EZ899-190130/001/PWY Travaux publics et Services… 2019/01/15 CAD 1,050.00
Kinetic Construction Ltd. EZ899-190130/001/PWY Travaux publics et Services… 2018/11/29 CAD 1,030.00
Kinetic Construction Ltd. EZ899-190130/001/PWY Travaux publics et Services… 2018/11/13 CAD 896.00
Kinetic Construction Ltd. EZ899-190130/001/PWY Travaux publics et Services… 2018/08/01 CAD 5,909,350.00
Kinetic Construction Ltd. EZ108-160654/001/PWY Travaux publics et Services… 2016/03/11 CAD 142,978.00
Kinetic Construction Ltd. EZ108-160654/001/PWY Travaux publics et Services… 2016/02/03 CAD 10,455.00
Kinetic Construction Ltd. EZ108-160654/001/PWY Travaux publics et Services… 2015/12/15 CAD 4,538.00
Kinetic Construction Ltd. EZ108-160654/001/PWY Travaux publics et Services… 2015/10/26 CAD 725,349.00

Quelques informations utiles

Téléchargez l’application mobile

Accédez à SAP Ariba à partir de votre appareil mobile.

Télécharger l’application mobile de SAP Ariba dans l’App Store
Télécharger l’application mobile de SAP Ariba dans Google Play

Inscrivez votre entreprise pour voir les occasions de marché et soumissionner.

Obtenez un aperçu du notre processus d’achat, y compris de l'information sur les politiques et les lignes directrices.

Découvrez la façon de vous préparer à vendre au gouvernement du Canada.

Lisez les dernières nouvelles et découvrez les événements à venir.

Date de modification: